createdAt,value
2022-10-18T00:00:15.990Z,6.70
2022-10-18T00:05:18.953Z,6.13
2022-10-18T00:10:21.776Z,5.25
2022-10-18T00:15:25.974Z,5.47
2022-10-18T00:20:28.694Z,4.93
2022-10-18T00:25:31.462Z,6.05
2022-10-18T00:30:35.608Z,4.85
2022-10-18T00:35:38.292Z,5.35
2022-10-18T00:40:40.995Z,4.82
2022-10-18T00:45:45.263Z,5.75
2022-10-18T00:50:48.684Z,4.88
2022-10-18T00:55:51.961Z,5.38
2022-10-18T01:00:56.116Z,5.18
2022-10-18T01:05:58.944Z,4.10
2022-10-18T01:11:14.526Z,4.95
2022-10-18T01:16:23.129Z,4.68
2022-10-18T01:21:37.097Z,5.05
2022-10-18T01:26:54.026Z,5.07
2022-10-18T01:32:00.111Z,3.53
2022-10-18T01:37:04.520Z,4.15
2022-10-18T01:42:08.922Z,4.15
2022-10-18T01:47:14.604Z,5.97
2022-10-18T01:52:17.736Z,3.63
2022-10-18T01:57:25.529Z,3.70
2022-10-18T02:02:40.246Z,3.67
2022-10-18T02:07:55.327Z,4.35
2022-10-18T02:13:09.524Z,3.30
2022-10-18T02:18:16.407Z,6.45
2022-10-18T02:23:22.614Z,3.70
2022-10-18T02:28:25.547Z,3.10
2022-10-18T02:33:34.276Z,4.85
2022-10-18T02:38:37.659Z,3.95
2022-10-18T02:43:40.344Z,2.55
2022-10-18T02:48:44.414Z,3.92
2022-10-18T02:53:47.127Z,4.15
2022-10-18T02:58:49.810Z,4.85
2022-10-18T03:03:53.855Z,2.78
2022-10-18T03:08:56.620Z,3.28
2022-10-18T03:13:59.409Z,2.42
2022-10-18T03:19:03.533Z,2.70
2022-10-18T03:24:07.393Z,3.83
2022-10-18T03:29:10.439Z,3.33
2022-10-18T03:34:15.695Z,3.35
2022-10-18T03:39:18.395Z,3.10
2022-10-18T03:44:21.169Z,2.70
2022-10-18T03:49:25.299Z,3.80
2022-10-18T03:54:27.986Z,3.17
2022-10-18T03:59:30.725Z,2.67
2022-10-18T04:04:34.821Z,3.33
2022-10-18T04:09:37.598Z,2.45
2022-10-18T04:14:40.389Z,3.35
2022-10-18T04:19:44.488Z,2.80
2022-10-18T04:24:47.210Z,2.60
2022-10-18T04:29:50.016Z,2.65
2022-10-18T04:34:54.140Z,2.70
2022-10-18T04:39:56.874Z,2.83
2022-10-18T04:44:59.689Z,3.40
2022-10-18T04:50:03.802Z,2.28
2022-10-18T04:55:07.488Z,2.70
2022-10-18T05:00:10.881Z,2.45
2022-10-18T05:05:14.965Z,2.35
2022-10-18T05:10:17.791Z,3.42
2022-10-18T05:15:20.543Z,3.78
2022-10-18T05:20:24.716Z,2.70
2022-10-18T05:25:27.460Z,2.28
2022-10-18T05:30:30.189Z,3.03
2022-10-18T05:35:34.604Z,3.05
2022-10-18T05:40:39.295Z,3.03
2022-10-18T05:45:48.468Z,2.05
2022-10-18T05:50:52.540Z,2.75
2022-10-18T05:55:55.295Z,3.90
2022-10-18T06:01:00.764Z,2.70
2022-10-18T06:06:07.101Z,2.25
2022-10-18T06:11:11.011Z,2.90
2022-10-18T06:16:14.972Z,3.20
2022-10-18T06:21:19.395Z,2.75
2022-10-18T06:26:22.625Z,3.50
2022-10-18T06:31:25.340Z,2.30
2022-10-18T06:36:29.716Z,3.20
2022-10-18T06:41:32.421Z,2.13
2022-10-18T06:46:53.498Z,3.08
2022-10-18T06:51:57.550Z,2.38
2022-10-18T06:57:02.548Z,2.90
2022-10-18T07:02:05.371Z,2.47
2022-10-18T07:07:09.480Z,1.85
2022-10-18T07:12:12.179Z,3.22
2022-10-18T07:17:15.063Z,2.42
2022-10-18T07:22:19.149Z,2.85
2022-10-18T07:27:21.820Z,3.40
2022-10-18T07:32:24.614Z,5.85
2022-10-18T07:37:30.203Z,5.28
2022-10-18T07:42:33.075Z,7.85
2022-10-18T07:47:35.978Z,6.38
2022-10-18T07:52:40.500Z,5.28
2022-10-18T07:57:43.183Z,4.70
2022-10-18T08:02:45.889Z,4.95
2022-10-18T08:07:50.018Z,5.82
2022-10-18T08:12:52.883Z,5.30
2022-10-18T08:17:55.563Z,4.43
2022-10-18T08:23:00.614Z,5.85
2022-10-18T08:28:03.511Z,4.40
2022-10-18T08:33:06.331Z,7.47
2022-10-18T08:38:16.472Z,7.95
2022-10-18T08:43:28.408Z,6.25
2022-10-18T08:48:36.738Z,4.60
2022-10-18T08:53:49.088Z,5.60
2022-10-18T08:58:52.082Z,5.05
2022-10-18T09:04:22.098Z,4.30
2022-10-18T09:09:34.582Z,5.70
2022-10-18T09:14:54.336Z,4.95
2022-10-18T09:20:07.314Z,6.22
2022-10-18T09:25:18.546Z,5.53
2022-10-18T09:30:30.387Z,5.68
2022-10-18T09:35:40.896Z,5.68
2022-10-18T09:40:52.251Z,5.97
2022-10-18T09:45:55.650Z,6.88
2022-10-18T09:51:00.145Z,8.23
2022-10-18T09:56:07.160Z,6.32
2022-10-18T10:01:11.599Z,7.88
2022-10-18T10:06:19.140Z,6.25
2022-10-18T10:11:35.637Z,6.70
2022-10-18T10:16:48.966Z,8.52
2022-10-18T10:21:53.344Z,6.00
2022-10-18T10:27:06.127Z,6.35
2022-10-18T10:32:13.774Z,6.47
2022-10-18T10:37:29.105Z,6.10
2022-10-18T10:42:34.486Z,6.82
2022-10-18T10:47:37.948Z,8.98
2022-10-18T10:52:41.448Z,6.63
2022-10-18T10:57:47.481Z,7.32
2022-10-18T11:02:59.418Z,8.05
2022-10-18T11:08:11.078Z,8.07
2022-10-18T11:13:25.132Z,7.53
2022-10-18T11:18:31.209Z,6.55
2022-10-18T11:23:34.809Z,9.23
2022-10-18T11:28:50.139Z,8.13
2022-10-18T11:34:09.193Z,6.80
2022-10-18T11:39:19.347Z,8.48
2022-10-18T11:44:28.399Z,6.95
2022-10-18T11:50:00.840Z,6.85
2022-10-18T11:55:13.726Z,8.13
2022-10-18T12:00:40.294Z,6.20
2022-10-18T12:05:44.939Z,7.05
2022-10-18T12:11:06.640Z,6.25
2022-10-18T12:16:11.910Z,7.95
2022-10-18T12:21:14.700Z,6.50
2022-10-18T12:26:18.284Z,15.80
2022-10-18T12:31:26.119Z,15.20
2022-10-18T12:36:48.860Z,14.05
2022-10-18T12:41:54.306Z,16.30
2022-10-18T12:46:59.478Z,20.08
2022-10-18T12:52:04.699Z,18.77
2022-10-18T12:57:22.918Z,14.75
2022-10-18T13:02:29.590Z,18.52
2022-10-18T13:07:42.994Z,18.02
2022-10-18T13:12:59.497Z,15.00
2022-10-18T13:18:09.735Z,14.40
2022-10-18T13:23:26.383Z,12.98
2022-10-18T13:28:33.832Z,12.25
2022-10-18T13:33:39.601Z,14.73
2022-10-18T13:38:48.410Z,12.38
2022-10-18T13:44:12.220Z,13.57
2022-10-18T13:49:28.972Z,14.07
2022-10-18T13:54:44.378Z,12.98
2022-10-18T14:00:05.508Z,11.13
2022-10-18T14:05:26.767Z,11.50
2022-10-18T14:10:50.133Z,11.93
2022-10-18T14:16:05.982Z,12.50
2022-10-18T14:21:16.837Z,15.00
2022-10-18T14:26:22.771Z,12.30
2022-10-18T14:31:25.528Z,12.68
2022-10-18T14:36:35.471Z,11.70
2022-10-18T14:41:41.134Z,12.85
2022-10-18T14:46:44.833Z,12.25
2022-10-18T14:51:52.030Z,15.30
2022-10-18T14:56:54.873Z,13.55
2022-10-18T15:01:59.320Z,13.13
2022-10-18T15:07:05.613Z,12.95
2022-10-18T15:12:08.559Z,12.25
2022-10-18T15:17:15.370Z,11.90
2022-10-18T15:22:32.456Z,12.43
2022-10-18T15:27:37.725Z,11.82
2022-10-18T15:32:48.765Z,11.65
2022-10-18T15:37:53.056Z,11.25
2022-10-18T15:42:57.042Z,10.00
2022-10-18T15:48:01.531Z,14.68
2022-10-18T15:53:25.373Z,11.32
2022-10-18T15:58:31.909Z,11.68
2022-10-18T16:03:35.854Z,12.50
2022-10-18T16:08:41.750Z,12.40
2022-10-18T16:13:45.086Z,13.40
2022-10-18T16:18:48.025Z,11.80
2022-10-18T16:23:52.081Z,11.68
2022-10-18T16:28:55.335Z,12.35
2022-10-18T16:33:58.743Z,12.93
2022-10-18T16:39:07.551Z,14.00
2022-10-18T16:44:10.215Z,12.13
2022-10-18T16:54:24.569Z,14.43
2022-10-18T16:59:28.766Z,13.05
2022-10-18T17:04:31.420Z,12.23
2022-10-18T17:09:36.875Z,13.98
2022-10-18T17:14:39.668Z,14.60
2022-10-18T17:19:42.340Z,15.73
2022-10-18T17:24:46.373Z,13.32
2022-10-18T17:29:49.070Z,26.77
2022-10-18T17:34:51.776Z,27.67
2022-10-18T17:39:55.869Z,28.63
2022-10-18T17:44:58.620Z,21.15
2022-10-18T17:50:01.307Z,23.30
2022-10-18T17:55:05.894Z,19.95
2022-10-18T18:00:11.565Z,26.63
2022-10-18T18:05:17.407Z,16.48
2022-10-18T18:10:21.495Z,17.05
2022-10-18T18:15:24.214Z,17.85
2022-10-18T18:20:27.217Z,17.88
2022-10-18T18:25:31.293Z,14.70
2022-10-18T18:30:33.982Z,16.20
2022-10-18T18:35:36.629Z,19.33
2022-10-18T18:40:40.678Z,21.55
2022-10-18T18:45:51.343Z,14.90
2022-10-18T18:50:54.136Z,18.08
2022-10-18T18:56:03.811Z,20.23
2022-10-18T19:01:08.740Z,15.02
2022-10-18T19:06:14.210Z,16.00
2022-10-18T19:11:20.808Z,15.45
2022-10-18T19:16:25.706Z,14.70
2022-10-18T19:21:31.007Z,14.48
2022-10-18T19:26:37.780Z,13.43
2022-10-18T19:31:40.855Z,16.52
2022-10-18T19:36:44.755Z,11.63
2022-10-18T19:41:49.477Z,15.40
2022-10-18T19:46:52.308Z,12.43
2022-10-18T19:51:55.016Z,12.32
2022-10-18T19:56:59.120Z,12.38
2022-10-18T20:02:01.894Z,12.10
2022-10-18T20:07:04.634Z,11.52
2022-10-18T20:12:08.732Z,13.50
2022-10-18T20:17:12.927Z,12.57
2022-10-18T20:22:15.743Z,11.75
2022-10-18T20:27:19.727Z,13.82
2022-10-18T20:32:22.397Z,10.05
2022-10-18T20:37:25.085Z,12.27
2022-10-18T20:42:29.130Z,15.18
2022-10-18T20:47:32.015Z,13.25
2022-10-18T20:52:35.027Z,11.25
2022-10-18T20:57:39.282Z,13.30
2022-10-18T21:02:42.082Z,15.68
2022-10-18T21:07:44.753Z,13.60
2022-10-18T21:12:49.557Z,19.13
2022-10-18T21:17:52.704Z,16.45
2022-10-18T21:22:57.337Z,17.13
2022-10-18T21:28:01.458Z,13.85
2022-10-18T21:33:04.484Z,16.38
2022-10-18T21:38:07.340Z,12.55
2022-10-18T21:43:11.530Z,16.88
2022-10-18T21:48:14.272Z,13.82
2022-10-18T21:53:17.113Z,11.90
2022-10-18T21:58:21.470Z,13.38
2022-10-18T22:03:24.198Z,14.60
2022-10-18T22:08:26.972Z,18.63
2022-10-18T22:13:31.114Z,15.70
2022-10-18T22:18:34.727Z,14.05
2022-10-18T22:23:39.177Z,12.85
2022-10-18T22:28:44.506Z,19.05
2022-10-18T22:33:48.055Z,18.88
2022-10-18T22:38:51.074Z,16.73
2022-10-18T22:43:57.344Z,14.88
2022-10-18T22:49:02.407Z,15.75
2022-10-18T22:54:05.226Z,11.90
2022-10-18T22:59:09.512Z,16.25
2022-10-18T23:04:12.188Z,14.10
2022-10-18T23:09:14.939Z,12.82
2022-10-18T23:14:19.103Z,15.48
2022-10-18T23:19:21.794Z,13.48
2022-10-18T23:24:24.476Z,13.77
2022-10-18T23:29:28.761Z,11.55
2022-10-18T23:34:31.518Z,10.48
2022-10-18T23:39:34.266Z,9.93
2022-10-18T23:44:38.330Z,11.02
2022-10-18T23:49:41.068Z,11.20
2022-10-18T23:59:48.699Z,10.10
